sensor_id;sensor_type;location;lat;lon;timestamp;temperature;humidity
7972;DHT22;4031;49.758;6.120;2023-09-19T00:00:42;13.70;99.90
7972;DHT22;4031;49.758;6.120;2023-09-19T00:03:09;13.60;99.90
7972;DHT22;4031;49.758;6.120;2023-09-19T00:05:36;13.50;99.90
7972;DHT22;4031;49.758;6.120;2023-09-19T00:08:10;13.40;99.90
7972;DHT22;4031;49.758;6.120;2023-09-19T00:10:35;13.30;99.90
7972;DHT22;4031;49.758;6.120;2023-09-19T00:13:02;13.40;99.90
7972;DHT22;4031;49.758;6.120;2023-09-19T00:15:43;13.40;99.90
7972;DHT22;4031;49.758;6.120;2023-09-19T00:18:14;13.50;99.90
7972;DHT22;4031;49.758;6.120;2023-09-19T00:20:41;13.50;99.90
7972;DHT22;4031;49.758;6.120;2023-09-19T00:23:07;13.50;99.90
7972;DHT22;4031;49.758;6.120;2023-09-19T00:25:36;13.60;99.90
7972;DHT22;4031;49.758;6.120;2023-09-19T00:28:03;13.70;99.90
7972;DHT22;4031;49.758;6.120;2023-09-19T00:30:29;13.80;99.90
7972;DHT22;4031;49.758;6.120;2023-09-19T00:32:55;13.80;99.90
7972;DHT22;4031;49.758;6.120;2023-09-19T00:35:22;13.80;99.90
7972;DHT22;4031;49.758;6.120;2023-09-19T00:37:51;13.80;99.90
7972;DHT22;4031;49.758;6.120;2023-09-19T00:40:17;13.80;99.90
7972;DHT22;4031;49.758;6.120;2023-09-19T00:42:45;13.80;99.90
7972;DHT22;4031;49.758;6.120;2023-09-19T00:45:13;13.80;99.90
7972;DHT22;4031;49.758;6.120;2023-09-19T00:47:43;13.80;99.90
7972;DHT22;4031;49.758;6.120;2023-09-19T00:50:11;13.80;99.90
7972;DHT22;4031;49.758;6.120;2023-09-19T00:52:40;13.70;99.90
7972;DHT22;4031;49.758;6.120;2023-09-19T00:55:08;13.70;99.90
7972;DHT22;4031;49.758;6.120;2023-09-19T00:57:36;13.70;99.90
7972;DHT22;4031;49.758;6.120;2023-09-19T01:00:06;13.70;99.90
7972;DHT22;4031;49.758;6.120;2023-09-19T01:02:34;13.70;99.90
7972;DHT22;4031;49.758;6.120;2023-09-19T01:05:00;13.70;99.90
7972;DHT22;4031;49.758;6.120;2023-09-19T01:07:27;13.70;99.90
7972;DHT22;4031;49.758;6.120;2023-09-19T01:09:56;13.70;99.90
7972;DHT22;4031;49.758;6.120;2023-09-19T01:31:59;14.00;99.90
7972;DHT22;4031;49.758;6.120;2023-09-19T01:34:46;14.00;99.90
7972;DHT22;4031;49.758;6.120;2023-09-19T01:37:13;14.00;99.90
7972;DHT22;4031;49.758;6.120;2023-09-19T01:40:02;13.90;99.90
7972;DHT22;4031;49.758;6.120;2023-09-19T01:50:59;13.90;99.90
7972;DHT22;4031;49.758;6.120;2023-09-19T01:53:51;13.90;99.90
7972;DHT22;4031;49.758;6.120;2023-09-19T01:56:38;13.90;99.90
7972;DHT22;4031;49.758;6.120;2023-09-19T01:59:13;13.90;99.90
7972;DHT22;4031;49.758;6.120;2023-09-19T02:01:40;13.90;99.90
7972;DHT22;4031;49.758;6.120;2023-09-19T02:04:10;13.90;99.90
7972;DHT22;4031;49.758;6.120;2023-09-19T02:06:39;13.90;99.90
7972;DHT22;4031;49.758;6.120;2023-09-19T02:09:06;13.90;99.90
7972;DHT22;4031;49.758;6.120;2023-09-19T02:11:32;13.90;99.90
7972;DHT22;4031;49.758;6.120;2023-09-19T02:13:58;14.00;99.90
7972;DHT22;4031;49.758;6.120;2023-09-19T02:16:24;13.90;99.90
7972;DHT22;4031;49.758;6.120;2023-09-19T02:18:50;13.80;99.90
7972;DHT22;4031;49.758;6.120;2023-09-19T02:21:17;13.80;99.90
7972;DHT22;4031;49.758;6.120;2023-09-19T02:23:44;13.80;99.90
7972;DHT22;4031;49.758;6.120;2023-09-19T02:26:10;13.80;99.90
7972;DHT22;4031;49.758;6.120;2023-09-19T02:28:37;13.80;99.90
7972;DHT22;4031;49.758;6.120;2023-09-19T02:31:03;13.80;99.90
7972;DHT22;4031;49.758;6.120;2023-09-19T02:33:31;13.80;99.90
7972;DHT22;4031;49.758;6.120;2023-09-19T02:36:01;13.70;99.90
7972;DHT22;4031;49.758;6.120;2023-09-19T02:38:29;13.70;99.90
7972;DHT22;4031;49.758;6.120;2023-09-19T02:40:55;13.70;99.90
7972;DHT22;4031;49.758;6.120;2023-09-19T02:43:22;13.70;99.90
7972;DHT22;4031;49.758;6.120;2023-09-19T02:45:48;13.60;99.90
7972;DHT22;4031;49.758;6.120;2023-09-19T02:48:15;13.60;99.90
7972;DHT22;4031;49.758;6.120;2023-09-19T02:50:42;13.60;99.90
7972;DHT22;4031;49.758;6.120;2023-09-19T02:53:09;13.60;99.90
7972;DHT22;4031;49.758;6.120;2023-09-19T02:55:38;13.50;99.90
7972;DHT22;4031;49.758;6.120;2023-09-19T02:58:06;13.50;99.90
7972;DHT22;4031;49.758;6.120;2023-09-19T03:00:37;13.50;99.90
7972;DHT22;4031;49.758;6.120;2023-09-19T03:03:03;13.40;99.90
7972;DHT22;4031;49.758;6.120;2023-09-19T03:05:32;13.40;99.90
7972;DHT22;4031;49.758;6.120;2023-09-19T03:07:58;13.50;99.90
7972;DHT22;4031;49.758;6.120;2023-09-19T03:10:26;13.40;99.90
7972;DHT22;4031;49.758;6.120;2023-09-19T03:12:53;13.40;99.90
7972;DHT22;4031;49.758;6.120;2023-09-19T03:15:19;13.40;99.90
7972;DHT22;4031;49.758;6.120;2023-09-19T03:17:47;13.30;99.90
7972;DHT22;4031;49.758;6.120;2023-09-19T03:20:14;13.20;99.90
7972;DHT22;4031;49.758;6.120;2023-09-19T03:22:45;13.10;99.90
7972;DHT22;4031;49.758;6.120;2023-09-19T03:25:11;13.10;99.90
7972;DHT22;4031;49.758;6.120;2023-09-19T03:27:38;13.10;99.90
7972;DHT22;4031;49.758;6.120;2023-09-19T03:30:05;13.10;99.90
7972;DHT22;4031;49.758;6.120;2023-09-19T03:32:39;13.10;99.90
7972;DHT22;4031;49.758;6.120;2023-09-19T03:35:09;13.10;99.90
7972;DHT22;4031;49.758;6.120;2023-09-19T03:37:39;13.10;99.90
7972;DHT22;4031;49.758;6.120;2023-09-19T03:40:12;13.10;99.90
7972;DHT22;4031;49.758;6.120;2023-09-19T03:42:39;13.10;99.90
7972;DHT22;4031;49.758;6.120;2023-09-19T03:45:09;13.10;99.90
7972;DHT22;4031;49.758;6.120;2023-09-19T03:47:38;13.00;99.90
7972;DHT22;4031;49.758;6.120;2023-09-19T03:50:06;13.00;99.90
7972;DHT22;4031;49.758;6.120;2023-09-19T03:52:34;13.00;99.90
7972;DHT22;4031;49.758;6.120;2023-09-19T03:54:59;13.00;99.90
7972;DHT22;4031;49.758;6.120;2023-09-19T03:57:26;13.00;99.90
7972;DHT22;4031;49.758;6.120;2023-09-19T03:59:52;13.00;99.90
7972;DHT22;4031;49.758;6.120;2023-09-19T04:02:19;13.00;99.90
7972;DHT22;4031;49.758;6.120;2023-09-19T04:04:49;13.00;99.90
7972;DHT22;4031;49.758;6.120;2023-09-19T04:07:15;13.00;99.90
7972;DHT22;4031;49.758;6.120;2023-09-19T04:09:42;13.00;99.90
7972;DHT22;4031;49.758;6.120;2023-09-19T04:12:08;13.00;99.90
7972;DHT22;4031;49.758;6.120;2023-09-19T04:14:36;13.00;99.90
7972;DHT22;4031;49.758;6.120;2023-09-19T04:17:03;13.10;99.90
7972;DHT22;4031;49.758;6.120;2023-09-19T04:19:30;13.10;99.90
7972;DHT22;4031;49.758;6.120;2023-09-19T04:21:56;13.10;99.90
7972;DHT22;4031;49.758;6.120;2023-09-19T04:24:22;13.10;99.90
7972;DHT22;4031;49.758;6.120;2023-09-19T04:26:47;13.00;99.90
7972;DHT22;4031;49.758;6.120;2023-09-19T04:29:13;13.00;99.90
7972;DHT22;4031;49.758;6.120;2023-09-19T04:31:39;12.90;99.90
7972;DHT22;4031;49.758;6.120;2023-09-19T04:34:06;12.80;99.90
7972;DHT22;4031;49.758;6.120;2023-09-19T04:36:34;12.70;99.90
7972;DHT22;4031;49.758;6.120;2023-09-19T04:39:02;12.70;99.90
7972;DHT22;4031;49.758;6.120;2023-09-19T04:41:32;12.70;99.90
7972;DHT22;4031;49.758;6.120;2023-09-19T04:43:59;12.70;99.90
7972;DHT22;4031;49.758;6.120;2023-09-19T04:46:25;12.70;99.90
7972;DHT22;4031;49.758;6.120;2023-09-19T04:48:51;12.60;99.90
7972;DHT22;4031;49.758;6.120;2023-09-19T04:51:16;12.60;99.90
7972;DHT22;4031;49.758;6.120;2023-09-19T04:53:44;12.60;99.90
7972;DHT22;4031;49.758;6.120;2023-09-19T04:56:10;12.60;99.90
7972;DHT22;4031;49.758;6.120;2023-09-19T04:58:35;12.50;99.90
7972;DHT22;4031;49.758;6.120;2023-09-19T05:01:01;12.50;99.90
7972;DHT22;4031;49.758;6.120;2023-09-19T05:03:28;12.50;99.90
7972;DHT22;4031;49.758;6.120;2023-09-19T05:05:54;12.50;99.90
7972;DHT22;4031;49.758;6.120;2023-09-19T05:08:20;12.40;99.90
7972;DHT22;4031;49.758;6.120;2023-09-19T05:10:47;12.40;99.90
7972;DHT22;4031;49.758;6.120;2023-09-19T05:13:14;12.40;99.90
7972;DHT22;4031;49.758;6.120;2023-09-19T05:15:40;12.40;99.90
7972;DHT22;4031;49.758;6.120;2023-09-19T05:18:06;12.30;99.90
7972;DHT22;4031;49.758;6.120;2023-09-19T05:20:32;12.30;99.90
7972;DHT22;4031;49.758;6.120;2023-09-19T05:23:02;12.30;99.90
7972;DHT22;4031;49.758;6.120;2023-09-19T05:25:34;12.30;99.90
7972;DHT22;4031;49.758;6.120;2023-09-19T05:28:02;12.20;99.90
7972;DHT22;4031;49.758;6.120;2023-09-19T05:30:31;12.10;99.90
7972;DHT22;4031;49.758;6.120;2023-09-19T05:32:57;12.00;99.90
7972;DHT22;4031;49.758;6.120;2023-09-19T05:35:23;12.10;99.90
7972;DHT22;4031;49.758;6.120;2023-09-19T05:37:51;12.00;99.90
7972;DHT22;4031;49.758;6.120;2023-09-19T05:40:18;12.10;99.90
7972;DHT22;4031;49.758;6.120;2023-09-19T05:42:44;12.10;99.90
7972;DHT22;4031;49.758;6.120;2023-09-19T05:45:10;12.10;99.90
7972;DHT22;4031;49.758;6.120;2023-09-19T05:47:42;12.10;99.90
7972;DHT22;4031;49.758;6.120;2023-09-19T05:50:11;12.20;99.90
7972;DHT22;4031;49.758;6.120;2023-09-19T05:52:38;12.30;99.90
7972;DHT22;4031;49.758;6.120;2023-09-19T05:55:05;12.30;99.90
7972;DHT22;4031;49.758;6.120;2023-09-19T05:57:32;12.40;99.90
7972;DHT22;4031;49.758;6.120;2023-09-19T06:00:01;12.40;99.90
7972;DHT22;4031;49.758;6.120;2023-09-19T06:02:27;12.50;99.90
7972;DHT22;4031;49.758;6.120;2023-09-19T06:04:55;12.40;99.90
7972;DHT22;4031;49.758;6.120;2023-09-19T06:07:22;12.50;99.90
7972;DHT22;4031;49.758;6.120;2023-09-19T06:09:52;12.50;99.90
7972;DHT22;4031;49.758;6.120;2023-09-19T06:12:19;12.50;99.90
7972;DHT22;4031;49.758;6.120;2023-09-19T06:14:45;12.60;99.90
7972;DHT22;4031;49.758;6.120;2023-09-19T06:17:11;12.60;99.90
7972;DHT22;4031;49.758;6.120;2023-09-19T06:19:37;12.60;99.90
7972;DHT22;4031;49.758;6.120;2023-09-19T06:22:03;12.70;99.90
7972;DHT22;4031;49.758;6.120;2023-09-19T06:24:29;12.70;99.90
7972;DHT22;4031;49.758;6.120;2023-09-19T06:26:54;12.70;99.90
7972;DHT22;4031;49.758;6.120;2023-09-19T06:29:20;12.80;99.90
7972;DHT22;4031;49.758;6.120;2023-09-19T06:31:48;12.80;99.90
7972;DHT22;4031;49.758;6.120;2023-09-19T06:34:14;12.90;99.90
7972;DHT22;4031;49.758;6.120;2023-09-19T06:36:40;12.90;99.90
7972;DHT22;4031;49.758;6.120;2023-09-19T06:39:07;13.00;99.90
7972;DHT22;4031;49.758;6.120;2023-09-19T06:41:37;13.10;99.90
7972;DHT22;4031;49.758;6.120;2023-09-19T06:44:04;13.10;99.90
7972;DHT22;4031;49.758;6.120;2023-09-19T06:46:30;13.20;99.90
7972;DHT22;4031;49.758;6.120;2023-09-19T06:49:00;13.30;99.90
7972;DHT22;4031;49.758;6.120;2023-09-19T06:51:32;13.30;99.90
7972;DHT22;4031;49.758;6.120;2023-09-19T06:54:00;13.40;99.90
7972;DHT22;4031;49.758;6.120;2023-09-19T06:56:30;13.50;99.90
7972;DHT22;4031;49.758;6.120;2023-09-19T06:58:57;13.50;99.90
7972;DHT22;4031;49.758;6.120;2023-09-19T07:01:23;13.60;99.90
7972;DHT22;4031;49.758;6.120;2023-09-19T07:03:48;13.60;99.90
7972;DHT22;4031;49.758;6.120;2023-09-19T07:06:14;13.60;99.90
7972;DHT22;4031;49.758;6.120;2023-09-19T07:08:40;13.70;99.90
7972;DHT22;4031;49.758;6.120;2023-09-19T07:11:06;13.80;99.90
7972;DHT22;4031;49.758;6.120;2023-09-19T07:13:32;13.90;99.90
7972;DHT22;4031;49.758;6.120;2023-09-19T07:15:58;14.00;99.90
7972;DHT22;4031;49.758;6.120;2023-09-19T07:18:25;14.10;99.90
7972;DHT22;4031;49.758;6.120;2023-09-19T07:20:51;14.10;99.90
7972;DHT22;4031;49.758;6.120;2023-09-19T07:23:21;14.20;99.90
7972;DHT22;4031;49.758;6.120;2023-09-19T07:25:48;14.30;99.90
7972;DHT22;4031;49.758;6.120;2023-09-19T07:28:14;14.50;99.90
7972;DHT22;4031;49.758;6.120;2023-09-19T07:30:41;14.70;99.90
7972;DHT22;4031;49.758;6.120;2023-09-19T07:33:07;14.80;99.90
7972;DHT22;4031;49.758;6.120;2023-09-19T07:35:36;14.90;99.90
7972;DHT22;4031;49.758;6.120;2023-09-19T07:38:05;15.00;99.90
7972;DHT22;4031;49.758;6.120;2023-09-19T07:40:31;15.00;99.90
7972;DHT22;4031;49.758;6.120;2023-09-19T07:42:57;15.20;99.90
7972;DHT22;4031;49.758;6.120;2023-09-19T07:45:27;15.30;99.90
7972;DHT22;4031;49.758;6.120;2023-09-19T07:47:55;15.40;99.90
7972;DHT22;4031;49.758;6.120;2023-09-19T07:50:21;15.40;99.90
7972;DHT22;4031;49.758;6.120;2023-09-19T07:52:47;15.50;99.90
7972;DHT22;4031;49.758;6.120;2023-09-19T07:55:16;15.60;99.90
7972;DHT22;4031;49.758;6.120;2023-09-19T07:57:46;15.50;99.90
7972;DHT22;4031;49.758;6.120;2023-09-19T08:00:14;15.50;99.90
7972;DHT22;4031;49.758;6.120;2023-09-19T08:02:40;15.50;99.90
7972;DHT22;4031;49.758;6.120;2023-09-19T08:05:08;15.50;99.90
7972;DHT22;4031;49.758;6.120;2023-09-19T08:07:36;15.50;99.90
7972;DHT22;4031;49.758;6.120;2023-09-19T08:10:05;15.60;99.90
7972;DHT22;4031;49.758;6.120;2023-09-19T08:12:33;15.50;99.90
7972;DHT22;4031;49.758;6.120;2023-09-19T08:15:04;15.40;99.90
7972;DHT22;4031;49.758;6.120;2023-09-19T08:17:34;15.40;99.90
7972;DHT22;4031;49.758;6.120;2023-09-19T08:20:01;15.40;99.90
7972;DHT22;4031;49.758;6.120;2023-09-19T08:22:30;15.40;99.90
7972;DHT22;4031;49.758;6.120;2023-09-19T08:24:57;15.50;99.90
7972;DHT22;4031;49.758;6.120;2023-09-19T08:27:23;15.50;99.90
7972;DHT22;4031;49.758;6.120;2023-09-19T08:29:53;15.60;99.90
7972;DHT22;4031;49.758;6.120;2023-09-19T08:32:18;15.80;99.90
7972;DHT22;4031;49.758;6.120;2023-09-19T08:34:49;16.30;99.90
7972;DHT22;4031;49.758;6.120;2023-09-19T08:37:15;16.70;99.90
7972;DHT22;4031;49.758;6.120;2023-09-19T08:39:42;17.10;99.90
7972;DHT22;4031;49.758;6.120;2023-09-19T08:42:08;17.50;99.90
7972;DHT22;4031;49.758;6.120;2023-09-19T08:44:37;17.70;99.90
7972;DHT22;4031;49.758;6.120;2023-09-19T08:47:10;17.90;99.90
7972;DHT22;4031;49.758;6.120;2023-09-19T08:50:01;18.10;99.90
7972;DHT22;4031;49.758;6.120;2023-09-19T08:52:41;18.10;99.90
7972;DHT22;4031;49.758;6.120;2023-09-19T08:55:12;18.00;99.90
7972;DHT22;4031;49.758;6.120;2023-09-19T08:57:46;17.80;99.90
7972;DHT22;4031;49.758;6.120;2023-09-19T09:00:15;18.10;99.90
7972;DHT22;4031;49.758;6.120;2023-09-19T09:02:43;18.10;99.90
7972;DHT22;4031;49.758;6.120;2023-09-19T09:05:10;18.00;99.90
7972;DHT22;4031;49.758;6.120;2023-09-19T09:07:40;18.20;99.90
7972;DHT22;4031;49.758;6.120;2023-09-19T09:10:07;18.20;99.90
7972;DHT22;4031;49.758;6.120;2023-09-19T09:12:34;18.00;99.90
7972;DHT22;4031;49.758;6.120;2023-09-19T09:15:02;18.50;99.90
7972;DHT22;4031;49.758;6.120;2023-09-19T09:17:29;18.90;99.90
7972;DHT22;4031;49.758;6.120;2023-09-19T09:19:56;18.60;99.90
7972;DHT22;4031;49.758;6.120;2023-09-19T09:22:22;18.40;99.90
7972;DHT22;4031;49.758;6.120;2023-09-19T09:24:56;18.70;99.90
7972;DHT22;4031;49.758;6.120;2023-09-19T09:27:30;19.40;99.90
7972;DHT22;4031;49.758;6.120;2023-09-19T09:29:57;19.60;99.90
7972;DHT22;4031;49.758;6.120;2023-09-19T09:32:27;19.30;99.90
7972;DHT22;4031;49.758;6.120;2023-09-19T09:34:59;19.00;99.90
7972;DHT22;4031;49.758;6.120;2023-09-19T09:37:26;18.90;99.90
7972;DHT22;4031;49.758;6.120;2023-09-19T09:40:00;18.80;99.90
7972;DHT22;4031;49.758;6.120;2023-09-19T09:42:42;18.60;99.90
7972;DHT22;4031;49.758;6.120;2023-09-19T09:48:02;18.10;99.90
7972;DHT22;4031;49.758;6.120;2023-09-19T09:50:31;18.40;99.90
7972;DHT22;4031;49.758;6.120;2023-09-19T09:53:29;19.30;99.90
7972;DHT22;4031;49.758;6.120;2023-09-19T09:56:07;19.80;99.90
7972;DHT22;4031;49.758;6.120;2023-09-19T09:58:51;20.70;99.90
7972;DHT22;4031;49.758;6.120;2023-09-19T10:01:21;21.80;99.90
7972;DHT22;4031;49.758;6.120;2023-09-19T10:03:57;22.20;99.90
7972;DHT22;4031;49.758;6.120;2023-09-19T10:06:23;22.70;99.90
7972;DHT22;4031;49.758;6.120;2023-09-19T10:09:05;22.70;99.90
7972;DHT22;4031;49.758;6.120;2023-09-19T10:14:13;22.40;99.90
7972;DHT22;4031;49.758;6.120;2023-09-19T10:16:45;22.30;99.90
7972;DHT22;4031;49.758;6.120;2023-09-19T10:19:23;22.50;99.90
7972;DHT22;4031;49.758;6.120;2023-09-19T10:21:54;22.80;99.90
7972;DHT22;4031;49.758;6.120;2023-09-19T10:24:22;22.50;99.90
7972;DHT22;4031;49.758;6.120;2023-09-19T10:26:50;22.10;99.90
7972;DHT22;4031;49.758;6.120;2023-09-19T10:29:17;21.60;99.90
7972;DHT22;4031;49.758;6.120;2023-09-19T10:31:47;21.30;99.90
7972;DHT22;4031;49.758;6.120;2023-09-19T10:34:17;21.10;99.90
7972;DHT22;4031;49.758;6.120;2023-09-19T10:36:45;20.80;99.90
7972;DHT22;4031;49.758;6.120;2023-09-19T10:39:14;21.10;99.90
7972;DHT22;4031;49.758;6.120;2023-09-19T10:41:50;21.80;99.90
7972;DHT22;4031;49.758;6.120;2023-09-19T10:44:21;22.50;99.90
7972;DHT22;4031;49.758;6.120;2023-09-19T10:46:49;22.90;99.90
7972;DHT22;4031;49.758;6.120;2023-09-19T10:49:18;23.20;99.90
7972;DHT22;4031;49.758;6.120;2023-09-19T10:51:45;22.90;99.90
7972;DHT22;4031;49.758;6.120;2023-09-19T10:54:16;22.70;99.90
7972;DHT22;4031;49.758;6.120;2023-09-19T10:56:46;22.30;99.90
7972;DHT22;4031;49.758;6.120;2023-09-19T10:59:19;22.40;99.90
7972;DHT22;4031;49.758;6.120;2023-09-19T11:01:56;22.30;99.90
7972;DHT22;4031;49.758;6.120;2023-09-19T11:04:33;21.50;99.90
7972;DHT22;4031;49.758;6.120;2023-09-19T11:07:13;20.90;99.90
7972;DHT22;4031;49.758;6.120;2023-09-19T11:09:50;20.50;99.90
7972;DHT22;4031;49.758;6.120;2023-09-19T11:15:01;20.90;99.90
7972;DHT22;4031;49.758;6.120;2023-09-19T11:17:38;21.20;99.90
7972;DHT22;4031;49.758;6.120;2023-09-19T11:30:35;23.60;99.90
7972;DHT22;4031;49.758;6.120;2023-09-19T11:33:30;23.40;99.90
7972;DHT22;4031;49.758;6.120;2023-09-19T11:36:11;23.50;99.90
7972;DHT22;4031;49.758;6.120;2023-09-19T11:43:48;23.90;99.90
7972;DHT22;4031;49.758;6.120;2023-09-19T11:46:16;23.60;99.90
7972;DHT22;4031;49.758;6.120;2023-09-19T11:48:48;22.80;99.90
7972;DHT22;4031;49.758;6.120;2023-09-19T11:51:16;22.40;99.90
7972;DHT22;4031;49.758;6.120;2023-09-19T11:53:52;22.00;99.90
7972;DHT22;4031;49.758;6.120;2023-09-19T11:56:28;22.00;99.90
7972;DHT22;4031;49.758;6.120;2023-09-19T11:58:57;21.70;99.90
7972;DHT22;4031;49.758;6.120;2023-09-19T12:01:33;22.10;99.90
7972;DHT22;4031;49.758;6.120;2023-09-19T12:04:01;22.20;99.90
7972;DHT22;4031;49.758;6.120;2023-09-19T12:06:30;22.60;99.90
7972;DHT22;4031;49.758;6.120;2023-09-19T12:08:57;22.70;99.90
7972;DHT22;4031;49.758;6.120;2023-09-19T12:11:30;22.90;99.90
7972;DHT22;4031;49.758;6.120;2023-09-19T12:13:58;23.20;99.90
7972;DHT22;4031;49.758;6.120;2023-09-19T12:16:26;23.40;99.90
7972;DHT22;4031;49.758;6.120;2023-09-19T12:18:56;23.90;99.90
7972;DHT22;4031;49.758;6.120;2023-09-19T12:21:30;24.20;99.90
7972;DHT22;4031;49.758;6.120;2023-09-19T12:26:45;23.60;99.90
7972;DHT22;4031;49.758;6.120;2023-09-19T12:29:21;23.20;99.90
7972;DHT22;4031;49.758;6.120;2023-09-19T12:31:48;23.20;99.90
7972;DHT22;4031;49.758;6.120;2023-09-19T12:34:24;23.60;99.90
7972;DHT22;4031;49.758;6.120;2023-09-19T12:37:14;23.80;99.90
7972;DHT22;4031;49.758;6.120;2023-09-19T12:39:46;23.80;99.90
7972;DHT22;4031;49.758;6.120;2023-09-19T12:42:25;24.20;99.90
7972;DHT22;4031;49.758;6.120;2023-09-19T12:44:57;24.50;99.90
7972;DHT22;4031;49.758;6.120;2023-09-19T12:47:27;24.60;99.90
7972;DHT22;4031;49.758;6.120;2023-09-19T12:50:12;24.40;99.90
7972;DHT22;4031;49.758;6.120;2023-09-19T12:52:51;24.30;99.90
7972;DHT22;4031;49.758;6.120;2023-09-19T12:55:29;24.20;99.90
7972;DHT22;4031;49.758;6.120;2023-09-19T12:58:13;23.50;99.90
7972;DHT22;4031;49.758;6.120;2023-09-19T13:00:45;22.90;99.90
7972;DHT22;4031;49.758;6.120;2023-09-19T13:06:01;23.10;99.90
7972;DHT22;4031;49.758;6.120;2023-09-19T13:08:34;22.80;99.90
7972;DHT22;4031;49.758;6.120;2023-09-19T13:13:35;23.20;99.90
7972;DHT22;4031;49.758;6.120;2023-09-19T13:16:03;23.90;99.90
7972;DHT22;4031;49.758;6.120;2023-09-19T13:18:42;24.10;99.90
7972;DHT22;4031;49.758;6.120;2023-09-19T13:21:14;24.30;99.90
7972;DHT22;4031;49.758;6.120;2023-09-19T13:23:42;24.30;99.90
7972;DHT22;4031;49.758;6.120;2023-09-19T13:26:09;24.00;99.90
7972;DHT22;4031;49.758;6.120;2023-09-19T13:28:37;24.00;99.90
7972;DHT22;4031;49.758;6.120;2023-09-19T13:31:03;24.60;99.90
7972;DHT22;4031;49.758;6.120;2023-09-19T13:33:29;24.60;99.90
7972;DHT22;4031;49.758;6.120;2023-09-19T13:35:55;24.00;99.90
7972;DHT22;4031;49.758;6.120;2023-09-19T13:38:22;23.20;99.90
7972;DHT22;4031;49.758;6.120;2023-09-19T13:40:48;22.70;99.90
7972;DHT22;4031;49.758;6.120;2023-09-19T13:43:14;22.50;99.90
7972;DHT22;4031;49.758;6.120;2023-09-19T13:45:41;22.40;99.90
7972;DHT22;4031;49.758;6.120;2023-09-19T13:48:08;22.20;99.90
7972;DHT22;4031;49.758;6.120;2023-09-19T13:50:37;22.20;99.90
7972;DHT22;4031;49.758;6.120;2023-09-19T13:53:08;23.00;99.90
7972;DHT22;4031;49.758;6.120;2023-09-19T13:55:33;23.60;99.90
7972;DHT22;4031;49.758;6.120;2023-09-19T13:57:59;23.30;99.90
7972;DHT22;4031;49.758;6.120;2023-09-19T14:00:25;23.30;99.90
7972;DHT22;4031;49.758;6.120;2023-09-19T14:02:51;22.90;99.90
7972;DHT22;4031;49.758;6.120;2023-09-19T14:05:17;22.60;99.90
7972;DHT22;4031;49.758;6.120;2023-09-19T14:07:44;22.40;99.90
7972;DHT22;4031;49.758;6.120;2023-09-19T14:10:11;22.00;99.90
7972;DHT22;4031;49.758;6.120;2023-09-19T14:12:37;21.80;99.90
7972;DHT22;4031;49.758;6.120;2023-09-19T14:15:10;22.40;99.90
7972;DHT22;4031;49.758;6.120;2023-09-19T14:17:37;23.10;99.90
7972;DHT22;4031;49.758;6.120;2023-09-19T14:20:03;23.30;99.90
7972;DHT22;4031;49.758;6.120;2023-09-19T14:22:31;23.00;99.90
7972;DHT22;4031;49.758;6.120;2023-09-19T14:24:57;22.70;99.90
7972;DHT22;4031;49.758;6.120;2023-09-19T14:27:25;22.70;99.90
7972;DHT22;4031;49.758;6.120;2023-09-19T14:29:50;22.90;99.90
7972;DHT22;4031;49.758;6.120;2023-09-19T14:32:16;22.70;99.90
7972;DHT22;4031;49.758;6.120;2023-09-19T14:34:43;22.80;99.90
7972;DHT22;4031;49.758;6.120;2023-09-19T14:37:10;23.10;99.90
7972;DHT22;4031;49.758;6.120;2023-09-19T14:39:37;23.30;99.90
7972;DHT22;4031;49.758;6.120;2023-09-19T14:42:05;23.90;99.90
7972;DHT22;4031;49.758;6.120;2023-09-19T14:44:31;24.50;99.90
7972;DHT22;4031;49.758;6.120;2023-09-19T14:46:57;24.90;99.90
7972;DHT22;4031;49.758;6.120;2023-09-19T14:49:24;25.30;99.90
7972;DHT22;4031;49.758;6.120;2023-09-19T14:51:50;25.20;99.90
7972;DHT22;4031;49.758;6.120;2023-09-19T14:54:17;24.70;99.90
7972;DHT22;4031;49.758;6.120;2023-09-19T14:56:44;24.60;99.90
7972;DHT22;4031;49.758;6.120;2023-09-19T14:59:10;24.10;99.90
7972;DHT22;4031;49.758;6.120;2023-09-19T15:01:36;23.80;99.90
7972;DHT22;4031;49.758;6.120;2023-09-19T15:04:02;23.40;99.90
7972;DHT22;4031;49.758;6.120;2023-09-19T15:06:28;23.00;99.90
7972;DHT22;4031;49.758;6.120;2023-09-19T15:08:54;22.60;99.90
7972;DHT22;4031;49.758;6.120;2023-09-19T15:11:20;22.80;99.90
7972;DHT22;4031;49.758;6.120;2023-09-19T15:13:50;23.30;99.90
7972;DHT22;4031;49.758;6.120;2023-09-19T15:16:16;23.60;99.90
7972;DHT22;4031;49.758;6.120;2023-09-19T15:18:45;23.80;99.90
7972;DHT22;4031;49.758;6.120;2023-09-19T15:21:13;23.40;99.90
7972;DHT22;4031;49.758;6.120;2023-09-19T15:23:41;22.90;99.90
7972;DHT22;4031;49.758;6.120;2023-09-19T15:26:10;22.80;99.90
7972;DHT22;4031;49.758;6.120;2023-09-19T15:28:37;22.70;99.90
7972;DHT22;4031;49.758;6.120;2023-09-19T15:31:06;22.60;99.90
7972;DHT22;4031;49.758;6.120;2023-09-19T15:33:33;22.20;99.90
7972;DHT22;4031;49.758;6.120;2023-09-19T15:36:04;21.80;99.90
7972;DHT22;4031;49.758;6.120;2023-09-19T15:38:31;21.50;99.90
7972;DHT22;4031;49.758;6.120;2023-09-19T15:40:58;21.50;99.90
7972;DHT22;4031;49.758;6.120;2023-09-19T15:43:25;21.30;99.90
7972;DHT22;4031;49.758;6.120;2023-09-19T15:45:50;21.00;99.90
7972;DHT22;4031;49.758;6.120;2023-09-19T15:48:17;20.60;99.90
7972;DHT22;4031;49.758;6.120;2023-09-19T15:50:44;20.50;99.90
7972;DHT22;4031;49.758;6.120;2023-09-19T15:53:10;20.50;99.90
7972;DHT22;4031;49.758;6.120;2023-09-19T15:55:41;20.40;99.90
7972;DHT22;4031;49.758;6.120;2023-09-19T15:58:07;20.50;99.90
7972;DHT22;4031;49.758;6.120;2023-09-19T16:00:33;20.60;99.90
7972;DHT22;4031;49.758;6.120;2023-09-19T16:03:02;20.80;99.90
7972;DHT22;4031;49.758;6.120;2023-09-19T16:05:34;20.70;99.90
7972;DHT22;4031;49.758;6.120;2023-09-19T16:08:05;20.60;99.90
7972;DHT22;4031;49.758;6.120;2023-09-19T16:10:36;20.50;99.90
7972;DHT22;4031;49.758;6.120;2023-09-19T16:13:05;20.30;99.90
7972;DHT22;4031;49.758;6.120;2023-09-19T16:15:31;20.10;99.90
7972;DHT22;4031;49.758;6.120;2023-09-19T16:17:57;19.90;99.90
7972;DHT22;4031;49.758;6.120;2023-09-19T16:20:25;19.70;99.90
7972;DHT22;4031;49.758;6.120;2023-09-19T16:22:53;19.60;99.90
7972;DHT22;4031;49.758;6.120;2023-09-19T16:25:19;19.70;99.90
7972;DHT22;4031;49.758;6.120;2023-09-19T16:27:44;19.70;99.90
7972;DHT22;4031;49.758;6.120;2023-09-19T16:30:10;19.50;99.90
7972;DHT22;4031;49.758;6.120;2023-09-19T16:32:36;19.50;99.90
7972;DHT22;4031;49.758;6.120;2023-09-19T16:35:02;19.40;99.90
7972;DHT22;4031;49.758;6.120;2023-09-19T16:37:28;19.30;99.90
7972;DHT22;4031;49.758;6.120;2023-09-19T16:39:54;19.20;99.90
7972;DHT22;4031;49.758;6.120;2023-09-19T16:42:19;19.00;99.90
7972;DHT22;4031;49.758;6.120;2023-09-19T16:44:46;18.90;99.90
7972;DHT22;4031;49.758;6.120;2023-09-19T16:47:12;18.70;99.90
7972;DHT22;4031;49.758;6.120;2023-09-19T16:49:37;18.60;99.90
7972;DHT22;4031;49.758;6.120;2023-09-19T16:52:03;18.60;99.90
7972;DHT22;4031;49.758;6.120;2023-09-19T16:54:29;18.50;99.90
7972;DHT22;4031;49.758;6.120;2023-09-19T16:56:55;18.50;99.90
7972;DHT22;4031;49.758;6.120;2023-09-19T16:59:21;18.50;99.90
7972;DHT22;4031;49.758;6.120;2023-09-19T17:01:48;18.50;99.90
7972;DHT22;4031;49.758;6.120;2023-09-19T17:04:14;18.50;99.90
7972;DHT22;4031;49.758;6.120;2023-09-19T17:06:40;18.40;99.90
7972;DHT22;4031;49.758;6.120;2023-09-19T17:09:11;18.30;99.90
7972;DHT22;4031;49.758;6.120;2023-09-19T17:11:37;18.20;99.90